sensor_id;sensor_type;location;lat;lon;timestamp;temperature;humidity
17565;DHT22;62994;52.126;5.596;2023-12-04T00:01:59;2.80;99.90
17565;DHT22;62994;52.126;5.596;2023-12-04T00:04:25;2.80;99.90
17565;DHT22;62994;52.126;5.596;2023-12-04T00:06:52;2.80;99.90
17565;DHT22;62994;52.126;5.596;2023-12-04T00:09:19;2.80;99.90
17565;DHT22;62994;52.126;5.596;2023-12-04T00:11:48;2.90;99.90
17565;DHT22;62994;52.126;5.596;2023-12-04T00:14:15;2.90;99.90
17565;DHT22;62994;52.126;5.596;2023-12-04T00:16:42;2.90;99.90
17565;DHT22;62994;52.126;5.596;2023-12-04T00:19:09;3.00;99.90
17565;DHT22;62994;52.126;5.596;2023-12-04T00:21:36;2.90;99.90
17565;DHT22;62994;52.126;5.596;2023-12-04T00:24:04;2.90;99.90
17565;DHT22;62994;52.126;5.596;2023-12-04T00:26:31;2.90;99.90
17565;DHT22;62994;52.126;5.596;2023-12-04T00:28:59;2.90;99.90
17565;DHT22;62994;52.126;5.596;2023-12-04T00:31:26;3.00;99.90
17565;DHT22;62994;52.126;5.596;2023-12-04T00:33:53;3.00;99.90
17565;DHT22;62994;52.126;5.596;2023-12-04T00:36:20;2.90;99.90
17565;DHT22;62994;52.126;5.596;2023-12-04T00:38:47;3.00;99.90
17565;DHT22;62994;52.126;5.596;2023-12-04T00:41:15;2.90;99.90
17565;DHT22;62994;52.126;5.596;2023-12-04T00:43:41;2.90;99.90
17565;DHT22;62994;52.126;5.596;2023-12-04T00:46:10;2.90;99.90
17565;DHT22;62994;52.126;5.596;2023-12-04T00:48:37;2.90;99.90
17565;DHT22;62994;52.126;5.596;2023-12-04T00:51:04;2.90;99.90
17565;DHT22;62994;52.126;5.596;2023-12-04T00:53:31;2.90;99.90
17565;DHT22;62994;52.126;5.596;2023-12-04T00:55:58;2.90;99.90
17565;DHT22;62994;52.126;5.596;2023-12-04T00:58:25;2.80;99.90
17565;DHT22;62994;52.126;5.596;2023-12-04T01:00:52;2.90;99.90
17565;DHT22;62994;52.126;5.596;2023-12-04T01:03:21;2.90;99.90
17565;DHT22;62994;52.126;5.596;2023-12-04T01:05:48;2.90;99.90
17565;DHT22;62994;52.126;5.596;2023-12-04T01:08:15;2.80;99.90
17565;DHT22;62994;52.126;5.596;2023-12-04T01:10:41;2.80;99.90
17565;DHT22;62994;52.126;5.596;2023-12-04T01:13:08;2.80;99.90
17565;DHT22;62994;52.126;5.596;2023-12-04T01:15:35;2.80;99.90
17565;DHT22;62994;52.126;5.596;2023-12-04T01:18:04;2.80;99.90
17565;DHT22;62994;52.126;5.596;2023-12-04T01:20:32;2.80;99.90
17565;DHT22;62994;52.126;5.596;2023-12-04T01:22:59;2.80;99.90
17565;DHT22;62994;52.126;5.596;2023-12-04T01:25:26;2.70;99.90
17565;DHT22;62994;52.126;5.596;2023-12-04T01:27:53;2.80;99.90
17565;DHT22;62994;52.126;5.596;2023-12-04T01:30:20;2.80;99.90
17565;DHT22;62994;52.126;5.596;2023-12-04T01:32:47;2.80;99.90
17565;DHT22;62994;52.126;5.596;2023-12-04T01:35:15;2.70;99.90
17565;DHT22;62994;52.126;5.596;2023-12-04T01:37:43;2.70;99.90
17565;DHT22;62994;52.126;5.596;2023-12-04T01:40:10;2.80;99.90
17565;DHT22;62994;52.126;5.596;2023-12-04T01:42:37;2.70;99.90
17565;DHT22;62994;52.126;5.596;2023-12-04T01:45:05;2.70;99.90
17565;DHT22;62994;52.126;5.596;2023-12-04T01:47:33;2.80;99.90
17565;DHT22;62994;52.126;5.596;2023-12-04T01:50:00;2.70;99.90
17565;DHT22;62994;52.126;5.596;2023-12-04T01:52:27;2.70;99.90
17565;DHT22;62994;52.126;5.596;2023-12-04T01:54:56;2.70;99.90
17565;DHT22;62994;52.126;5.596;2023-12-04T01:57:23;2.70;99.90
17565;DHT22;62994;52.126;5.596;2023-12-04T01:59:50;2.70;99.90
17565;DHT22;62994;52.126;5.596;2023-12-04T02:02:17;2.70;99.90
17565;DHT22;62994;52.126;5.596;2023-12-04T02:04:46;2.80;99.90
17565;DHT22;62994;52.126;5.596;2023-12-04T02:07:12;2.80;99.90
17565;DHT22;62994;52.126;5.596;2023-12-04T02:09:39;2.80;99.90
17565;DHT22;62994;52.126;5.596;2023-12-04T02:12:08;2.80;99.90
17565;DHT22;62994;52.126;5.596;2023-12-04T02:14:35;2.80;99.90
17565;DHT22;62994;52.126;5.596;2023-12-04T02:17:04;2.90;99.90
17565;DHT22;62994;52.126;5.596;2023-12-04T02:19:32;2.80;99.90
17565;DHT22;62994;52.126;5.596;2023-12-04T02:21:59;2.90;99.90
17565;DHT22;62994;52.126;5.596;2023-12-04T02:24:27;2.90;99.90
17565;DHT22;62994;52.126;5.596;2023-12-04T02:27:04;2.90;99.90
17565;DHT22;62994;52.126;5.596;2023-12-04T02:29:39;2.90;99.90
17565;DHT22;62994;52.126;5.596;2023-12-04T02:32:11;2.90;99.90
17565;DHT22;62994;52.126;5.596;2023-12-04T02:34:42;2.90;99.90
17565;DHT22;62994;52.126;5.596;2023-12-04T02:37:11;2.90;99.90
17565;DHT22;62994;52.126;5.596;2023-12-04T02:39:41;2.90;99.90
17565;DHT22;62994;52.126;5.596;2023-12-04T02:42:09;2.90;99.90
17565;DHT22;62994;52.126;5.596;2023-12-04T02:44:36;2.90;99.90
17565;DHT22;62994;52.126;5.596;2023-12-04T02:47:03;2.90;99.90
17565;DHT22;62994;52.126;5.596;2023-12-04T02:49:30;2.90;99.90
17565;DHT22;62994;52.126;5.596;2023-12-04T02:51:56;2.90;99.90
17565;DHT22;62994;52.126;5.596;2023-12-04T02:54:24;2.90;99.90
17565;DHT22;62994;52.126;5.596;2023-12-04T02:56:52;2.90;99.90
17565;DHT22;62994;52.126;5.596;2023-12-04T02:59:19;2.90;99.90
17565;DHT22;62994;52.126;5.596;2023-12-04T03:01:46;2.90;99.90
17565;DHT22;62994;52.126;5.596;2023-12-04T03:04:13;2.90;99.90
17565;DHT22;62994;52.126;5.596;2023-12-04T03:06:40;2.90;99.90
17565;DHT22;62994;52.126;5.596;2023-12-04T03:09:07;2.90;99.90
17565;DHT22;62994;52.126;5.596;2023-12-04T03:11:34;2.90;99.90
17565;DHT22;62994;52.126;5.596;2023-12-04T03:14:02;2.90;99.90
17565;DHT22;62994;52.126;5.596;2023-12-04T03:16:28;2.90;99.90
17565;DHT22;62994;52.126;5.596;2023-12-04T03:18:55;2.90;99.90
17565;DHT22;62994;52.126;5.596;2023-12-04T03:21:22;2.90;99.90
17565;DHT22;62994;52.126;5.596;2023-12-04T03:23:49;2.90;99.90
17565;DHT22;62994;52.126;5.596;2023-12-04T03:26:16;2.90;99.90
17565;DHT22;62994;52.126;5.596;2023-12-04T03:28:43;2.90;99.90
17565;DHT22;62994;52.126;5.596;2023-12-04T03:31:11;2.90;99.90
17565;DHT22;62994;52.126;5.596;2023-12-04T03:33:38;2.90;99.90
17565;DHT22;62994;52.126;5.596;2023-12-04T03:36:08;2.90;99.90
17565;DHT22;62994;52.126;5.596;2023-12-04T03:38:41;2.90;99.90
17565;DHT22;62994;52.126;5.596;2023-12-04T03:41:15;3.00;99.90
17565;DHT22;62994;52.126;5.596;2023-12-04T03:43:53;2.90;99.90
17565;DHT22;62994;52.126;5.596;2023-12-04T03:46:24;2.90;99.90
17565;DHT22;62994;52.126;5.596;2023-12-04T03:48:55;2.90;99.90
17565;DHT22;62994;52.126;5.596;2023-12-04T03:51:33;2.90;99.90
17565;DHT22;62994;52.126;5.596;2023-12-04T03:54:02;3.30;99.90
17565;DHT22;62994;52.126;5.596;2023-12-04T03:56:29;3.40;99.90
17565;DHT22;62994;52.126;5.596;2023-12-04T03:58:58;2.90;99.90
17565;DHT22;62994;52.126;5.596;2023-12-04T04:01:31;2.90;99.90
17565;DHT22;62994;52.126;5.596;2023-12-04T04:04:12;2.90;99.90
17565;DHT22;62994;52.126;5.596;2023-12-04T04:06:53;2.90;99.90
17565;DHT22;62994;52.126;5.596;2023-12-04T04:09:22;2.80;99.90
17565;DHT22;62994;52.126;5.596;2023-12-04T04:12:12;2.80;99.90
17565;DHT22;62994;52.126;5.596;2023-12-04T04:14:39;2.70;99.90
17565;DHT22;62994;52.126;5.596;2023-12-04T04:17:08;2.80;99.90
17565;DHT22;62994;52.126;5.596;2023-12-04T04:19:52;2.70;99.90
17565;DHT22;62994;52.126;5.596;2023-12-04T04:22:26;2.60;99.90
17565;DHT22;62994;52.126;5.596;2023-12-04T04:25:01;3.10;99.90
17565;DHT22;62994;52.126;5.596;2023-12-04T04:27:30;2.80;99.90
17565;DHT22;62994;52.126;5.596;2023-12-04T04:29:58;2.70;99.90
17565;DHT22;62994;52.126;5.596;2023-12-04T04:32:30;2.70;99.90
17565;DHT22;62994;52.126;5.596;2023-12-04T04:35:13;2.70;99.90
17565;DHT22;62994;52.126;5.596;2023-12-04T04:37:51;2.70;99.90
17565;DHT22;62994;52.126;5.596;2023-12-04T04:40:20;2.60;99.90
17565;DHT22;62994;52.126;5.596;2023-12-04T04:42:55;2.70;99.90
17565;DHT22;62994;52.126;5.596;2023-12-04T04:45:22;2.60;99.90
17565;DHT22;62994;52.126;5.596;2023-12-04T04:47:57;2.60;99.90
17565;DHT22;62994;52.126;5.596;2023-12-04T04:50:28;2.60;99.90
17565;DHT22;62994;52.126;5.596;2023-12-04T04:52:56;2.50;99.90
17565;DHT22;62994;52.126;5.596;2023-12-04T04:55:24;2.80;99.90
17565;DHT22;62994;52.126;5.596;2023-12-04T04:57:52;2.60;99.90
17565;DHT22;62994;52.126;5.596;2023-12-04T05:00:21;2.60;99.90
17565;DHT22;62994;52.126;5.596;2023-12-04T05:02:48;2.60;99.90
17565;DHT22;62994;52.126;5.596;2023-12-04T05:05:22;2.80;99.90
17565;DHT22;62994;52.126;5.596;2023-12-04T05:08:03;2.60;99.90
17565;DHT22;62994;52.126;5.596;2023-12-04T05:10:32;2.60;99.90
17565;DHT22;62994;52.126;5.596;2023-12-04T05:13:01;2.60;99.90
17565;DHT22;62994;52.126;5.596;2023-12-04T05:15:31;2.60;99.90
17565;DHT22;62994;52.126;5.596;2023-12-04T05:18:30;2.60;99.90
17565;DHT22;62994;52.126;5.596;2023-12-04T05:20:59;3.00;99.90
17565;DHT22;62994;52.126;5.596;2023-12-04T05:23:28;2.60;99.90
17565;DHT22;62994;52.126;5.596;2023-12-04T05:25:55;2.60;99.90
17565;DHT22;62994;52.126;5.596;2023-12-04T05:28:24;2.60;99.90
17565;DHT22;62994;52.126;5.596;2023-12-04T05:30:55;2.50;99.90
17565;DHT22;62994;52.126;5.596;2023-12-04T05:33:28;2.60;99.90
17565;DHT22;62994;52.126;5.596;2023-12-04T05:35:55;2.60;99.90
17565;DHT22;62994;52.126;5.596;2023-12-04T05:38:28;2.60;99.90
17565;DHT22;62994;52.126;5.596;2023-12-04T05:41:01;2.60;99.90
17565;DHT22;62994;52.126;5.596;2023-12-04T05:43:28;2.60;99.90
17565;DHT22;62994;52.126;5.596;2023-12-04T05:46:00;2.50;99.90
17565;DHT22;62994;52.126;5.596;2023-12-04T05:48:32;2.50;99.90
17565;DHT22;62994;52.126;5.596;2023-12-04T05:51:01;2.60;99.90
17565;DHT22;62994;52.126;5.596;2023-12-04T05:53:31;2.40;99.90
17565;DHT22;62994;52.126;5.596;2023-12-04T05:55:58;2.60;99.90
17565;DHT22;62994;52.126;5.596;2023-12-04T05:58:26;2.40;99.90
17565;DHT22;62994;52.126;5.596;2023-12-04T06:00:54;2.50;99.90
17565;DHT22;62994;52.126;5.596;2023-12-04T06:03:27;2.50;99.90
17565;DHT22;62994;52.126;5.596;2023-12-04T06:05:56;2.50;99.90
17565;DHT22;62994;52.126;5.596;2023-12-04T06:08:23;2.40;99.90
17565;DHT22;62994;52.126;5.596;2023-12-04T06:10:55;2.20;99.90
17565;DHT22;62994;52.126;5.596;2023-12-04T06:13:23;2.50;99.90
17565;DHT22;62994;52.126;5.596;2023-12-04T06:15:53;2.50;99.90
17565;DHT22;62994;52.126;5.596;2023-12-04T06:18:27;2.60;99.90
17565;DHT22;62994;52.126;5.596;2023-12-04T06:21:09;2.60;99.90
17565;DHT22;62994;52.126;5.596;2023-12-04T06:23:41;2.70;99.90
17565;DHT22;62994;52.126;5.596;2023-12-04T06:26:24;2.60;99.90
17565;DHT22;62994;52.126;5.596;2023-12-04T06:28:52;2.60;99.90
17565;DHT22;62994;52.126;5.596;2023-12-04T06:31:29;2.60;99.90
17565;DHT22;62994;52.126;5.596;2023-12-04T06:34:09;2.50;99.90
17565;DHT22;62994;52.126;5.596;2023-12-04T06:36:38;2.60;99.90
17565;DHT22;62994;52.126;5.596;2023-12-04T06:39:10;2.60;99.90
17565;DHT22;62994;52.126;5.596;2023-12-04T06:41:43;2.60;99.90
17565;DHT22;62994;52.126;5.596;2023-12-04T06:44:15;2.60;99.90
17565;DHT22;62994;52.126;5.596;2023-12-04T06:46:49;2.60;99.90
17565;DHT22;62994;52.126;5.596;2023-12-04T06:49:20;3.00;99.90
17565;DHT22;62994;52.126;5.596;2023-12-04T06:51:49;2.60;99.90
17565;DHT22;62994;52.126;5.596;2023-12-04T06:54:18;2.60;99.90
17565;DHT22;62994;52.126;5.596;2023-12-04T06:56:53;2.60;99.90
17565;DHT22;62994;52.126;5.596;2023-12-04T06:59:25;2.60;99.90
17565;DHT22;62994;52.126;5.596;2023-12-04T07:01:59;2.60;99.90
17565;DHT22;62994;52.126;5.596;2023-12-04T07:04:39;2.60;99.90
17565;DHT22;62994;52.126;5.596;2023-12-04T07:07:09;2.50;99.90
17565;DHT22;62994;52.126;5.596;2023-12-04T07:09:38;2.50;99.90
17565;DHT22;62994;52.126;5.596;2023-12-04T07:12:09;2.50;99.90
17565;DHT22;62994;52.126;5.596;2023-12-04T07:14:43;2.50;99.90
17565;DHT22;62994;52.126;5.596;2023-12-04T07:17:14;2.70;99.90
17565;DHT22;62994;52.126;5.596;2023-12-04T07:19:45;2.60;99.90
17565;DHT22;62994;52.126;5.596;2023-12-04T07:22:18;2.60;99.90
17565;DHT22;62994;52.126;5.596;2023-12-04T07:24:45;2.30;99.90
17565;DHT22;62994;52.126;5.596;2023-12-04T07:27:23;2.50;99.90
17565;DHT22;62994;52.126;5.596;2023-12-04T07:29:56;2.50;99.90
17565;DHT22;62994;52.126;5.596;2023-12-04T07:32:26;2.50;99.90
17565;DHT22;62994;52.126;5.596;2023-12-04T07:35:03;2.50;99.90
17565;DHT22;62994;52.126;5.596;2023-12-04T07:37:37;2.50;99.90
17565;DHT22;62994;52.126;5.596;2023-12-04T07:40:11;2.90;99.90
17565;DHT22;62994;52.126;5.596;2023-12-04T07:46:02;2.50;99.90
17565;DHT22;62994;52.126;5.596;2023-12-04T07:52:30;2.50;99.90
17565;DHT22;62994;52.126;5.596;2023-12-04T07:58:30;2.50;99.90
17565;DHT22;62994;52.126;5.596;2023-12-04T08:08:01;2.70;99.90
17565;DHT22;62994;52.126;5.596;2023-12-04T08:10:43;2.70;99.90
17565;DHT22;62994;52.126;5.596;2023-12-04T08:13:10;2.70;99.90
17565;DHT22;62994;52.126;5.596;2023-12-04T08:15:39;2.70;99.90
17565;DHT22;62994;52.126;5.596;2023-12-04T08:18:08;2.40;99.90
17565;DHT22;62994;52.126;5.596;2023-12-04T08:20:36;2.70;99.90
17565;DHT22;62994;52.126;5.596;2023-12-04T08:23:05;2.90;99.90
17565;DHT22;62994;52.126;5.596;2023-12-04T08:25:38;2.80;99.90
17565;DHT22;62994;52.126;5.596;2023-12-04T08:28:09;2.80;99.90
17565;DHT22;62994;52.126;5.596;2023-12-04T08:30:38;2.80;99.90
17565;DHT22;62994;52.126;5.596;2023-12-04T08:33:08;2.80;99.90
17565;DHT22;62994;52.126;5.596;2023-12-04T08:35:44;2.80;99.90
17565;DHT22;62994;52.126;5.596;2023-12-04T08:38:23;3.00;99.90
17565;DHT22;62994;52.126;5.596;2023-12-04T08:40:55;2.80;99.90
17565;DHT22;62994;52.126;5.596;2023-12-04T08:43:26;3.30;99.90
17565;DHT22;62994;52.126;5.596;2023-12-04T08:45:55;2.90;99.90
17565;DHT22;62994;52.126;5.596;2023-12-04T08:48:33;2.90;99.90
17565;DHT22;62994;52.126;5.596;2023-12-04T08:51:20;2.90;99.90
17565;DHT22;62994;52.126;5.596;2023-12-04T08:53:58;3.00;99.90
17565;DHT22;62994;52.126;5.596;2023-12-04T08:56:28;3.00;99.90
17565;DHT22;62994;52.126;5.596;2023-12-04T08:58:58;3.00;99.90
17565;DHT22;62994;52.126;5.596;2023-12-04T09:01:31;3.00;99.90
17565;DHT22;62994;52.126;5.596;2023-12-04T09:04:02;3.50;99.90
17565;DHT22;62994;52.126;5.596;2023-12-04T09:06:43;3.10;99.90
17565;DHT22;62994;52.126;5.596;2023-12-04T09:09:14;3.30;99.90
17565;DHT22;62994;52.126;5.596;2023-12-04T09:11:52;3.10;99.90
17565;DHT22;62994;52.126;5.596;2023-12-04T09:14:32;3.20;99.90
17565;DHT22;62994;52.126;5.596;2023-12-04T09:17:01;3.10;99.90
17565;DHT22;62994;52.126;5.596;2023-12-04T09:19:30;3.10;99.90
17565;DHT22;62994;52.126;5.596;2023-12-04T09:22:08;3.20;99.90
17565;DHT22;62994;52.126;5.596;2023-12-04T09:24:41;3.20;99.90
17565;DHT22;62994;52.126;5.596;2023-12-04T09:27:11;3.60;99.90
17565;DHT22;62994;52.126;5.596;2023-12-04T09:29:50;3.20;99.90
17565;DHT22;62994;52.126;5.596;2023-12-04T09:35:11;3.20;99.90
17565;DHT22;62994;52.126;5.596;2023-12-04T09:40:37;3.20;99.90
17565;DHT22;62994;52.126;5.596;2023-12-04T09:46:06;3.30;99.90
17565;DHT22;62994;52.126;5.596;2023-12-04T09:48:44;3.30;99.90
17565;DHT22;62994;52.126;5.596;2023-12-04T09:51:15;3.30;99.90
17565;DHT22;62994;52.126;5.596;2023-12-04T09:53:50;3.30;99.90
17565;DHT22;62994;52.126;5.596;2023-12-04T09:56:22;3.30;99.90
17565;DHT22;62994;52.126;5.596;2023-12-04T09:58:59;3.40;99.90
17565;DHT22;62994;52.126;5.596;2023-12-04T10:01:29;3.40;99.90
17565;DHT22;62994;52.126;5.596;2023-12-04T10:07:00;3.40;99.90
17565;DHT22;62994;52.126;5.596;2023-12-04T10:09:34;3.50;99.90
17565;DHT22;62994;52.126;5.596;2023-12-04T10:12:13;3.50;99.90
17565;DHT22;62994;52.126;5.596;2023-12-04T10:15:06;3.50;99.90
17565;DHT22;62994;52.126;5.596;2023-12-04T10:17:52;3.60;99.90
17565;DHT22;62994;52.126;5.596;2023-12-04T10:20:23;3.90;99.90
17565;DHT22;62994;52.126;5.596;2023-12-04T10:23:01;3.60;99.90
17565;DHT22;62994;52.126;5.596;2023-12-04T10:25:31;3.70;99.90
17565;DHT22;62994;52.126;5.596;2023-12-04T10:28:12;3.80;99.90
17565;DHT22;62994;52.126;5.596;2023-12-04T10:30:45;3.80;99.90
17565;DHT22;62994;52.126;5.596;2023-12-04T10:33:20;3.80;99.90
17565;DHT22;62994;52.126;5.596;2023-12-04T10:35:50;3.80;99.90
17565;DHT22;62994;52.126;5.596;2023-12-04T10:38:20;3.80;99.90
17565;DHT22;62994;52.126;5.596;2023-12-04T10:40:50;3.80;99.90
17565;DHT22;62994;52.126;5.596;2023-12-04T10:43:26;4.00;99.90
17565;DHT22;62994;52.126;5.596;2023-12-04T10:45:58;3.80;99.90
17565;DHT22;62994;52.126;5.596;2023-12-04T10:48:30;3.90;99.90
17565;DHT22;62994;52.126;5.596;2023-12-04T10:50:59;3.90;99.90
17565;DHT22;62994;52.126;5.596;2023-12-04T10:53:29;3.80;99.90
17565;DHT22;62994;52.126;5.596;2023-12-04T10:56:03;3.90;99.90
17565;DHT22;62994;52.126;5.596;2023-12-04T10:58:34;3.90;99.90
17565;DHT22;62994;52.126;5.596;2023-12-04T11:01:03;3.80;99.90
17565;DHT22;62994;52.126;5.596;2023-12-04T11:03:40;3.80;99.90
17565;DHT22;62994;52.126;5.596;2023-12-04T11:06:15;3.80;99.90
17565;DHT22;62994;52.126;5.596;2023-12-04T11:08:48;3.80;99.90
17565;DHT22;62994;52.126;5.596;2023-12-04T11:11:21;3.90;99.90
17565;DHT22;62994;52.126;5.596;2023-12-04T11:13:58;3.80;99.90
17565;DHT22;62994;52.126;5.596;2023-12-04T11:16:34;3.80;99.90
17565;DHT22;62994;52.126;5.596;2023-12-04T11:19:14;3.80;99.90
17565;DHT22;62994;52.126;5.596;2023-12-04T11:22:00;3.80;99.90
17565;DHT22;62994;52.126;5.596;2023-12-04T11:24:41;3.80;99.90
17565;DHT22;62994;52.126;5.596;2023-12-04T11:27:10;3.80;99.90
17565;DHT22;62994;52.126;5.596;2023-12-04T11:29:43;3.80;99.90
17565;DHT22;62994;52.126;5.596;2023-12-04T11:32:14;3.80;99.90
17565;DHT22;62994;52.126;5.596;2023-12-04T11:34:55;3.80;99.90
17565;DHT22;62994;52.126;5.596;2023-12-04T11:37:29;3.70;99.90
17565;DHT22;62994;52.126;5.596;2023-12-04T11:40:08;3.70;99.90
17565;DHT22;62994;52.126;5.596;2023-12-04T11:42:43;3.80;99.90
17565;DHT22;62994;52.126;5.596;2023-12-04T11:45:45;3.80;99.90
17565;DHT22;62994;52.126;5.596;2023-12-04T11:48:17;3.90;99.90
17565;DHT22;62994;52.126;5.596;2023-12-04T11:50:56;4.00;99.90
17565;DHT22;62994;52.126;5.596;2023-12-04T11:53:23;3.80;99.90
17565;DHT22;62994;52.126;5.596;2023-12-04T11:56:10;3.80;99.90
17565;DHT22;62994;52.126;5.596;2023-12-04T11:58:44;3.80;99.90
17565;DHT22;62994;52.126;5.596;2023-12-04T12:01:13;3.80;99.90
17565;DHT22;62994;52.126;5.596;2023-12-04T12:07:24;3.70;99.90
17565;DHT22;62994;52.126;5.596;2023-12-04T12:16:48;3.70;99.90
17565;DHT22;62994;52.126;5.596;2023-12-04T13:03:53;3.70;99.90
17565;DHT22;62994;52.126;5.596;2023-12-04T13:10:30;3.70;99.90
17565;DHT22;62994;52.126;5.596;2023-12-04T13:16:57;3.70;99.90
17565;DHT22;62994;52.126;5.596;2023-12-04T13:26:30;3.70;99.90
17565;DHT22;62994;52.126;5.596;2023-12-04T13:29:15;3.70;99.90
17565;DHT22;62994;52.126;5.596;2023-12-04T13:32:21;3.80;99.90
17565;DHT22;62994;52.126;5.596;2023-12-04T13:34:59;3.80;99.90
17565;DHT22;62994;52.126;5.596;2023-12-04T13:37:30;3.80;99.90
17565;DHT22;62994;52.126;5.596;2023-12-04T13:39:59;3.80;99.90
17565;DHT22;62994;52.126;5.596;2023-12-04T13:42:35;3.80;99.90
17565;DHT22;62994;52.126;5.596;2023-12-04T13:45:38;3.80;99.90
17565;DHT22;62994;52.126;5.596;2023-12-04T13:48:38;3.80;99.90
17565;DHT22;62994;52.126;5.596;2023-12-04T13:51:34;3.70;99.90
17565;DHT22;62994;52.126;5.596;2023-12-04T13:54:07;3.80;99.90
17565;DHT22;62994;52.126;5.596;2023-12-04T13:56:56;3.80;99.90
17565;DHT22;62994;52.126;5.596;2023-12-04T13:59:37;4.20;99.90
17565;DHT22;62994;52.126;5.596;2023-12-04T14:02:07;3.80;99.90
17565;DHT22;62994;52.126;5.596;2023-12-04T14:04:39;3.80;99.90
17565;DHT22;62994;52.126;5.596;2023-12-04T14:07:15;3.80;99.90
17565;DHT22;62994;52.126;5.596;2023-12-04T14:09:58;3.80;99.90
17565;DHT22;62994;52.126;5.596;2023-12-04T14:12:29;3.90;99.90
17565;DHT22;62994;52.126;5.596;2023-12-04T14:18:38;3.80;99.90
17565;DHT22;62994;52.126;5.596;2023-12-04T14:21:11;3.80;99.90
17565;DHT22;62994;52.126;5.596;2023-12-04T14:24:15;3.70;99.90
17565;DHT22;62994;52.126;5.596;2023-12-04T14:26:52;3.80;99.90
17565;DHT22;62994;52.126;5.596;2023-12-04T14:29:22;3.70;99.90
17565;DHT22;62994;52.126;5.596;2023-12-04T14:31:49;3.80;99.90
17565;DHT22;62994;52.126;5.596;2023-12-04T14:34:19;3.80;99.90
17565;DHT22;62994;52.126;5.596;2023-12-04T14:36:56;3.80;99.90
17565;DHT22;62994;52.126;5.596;2023-12-04T14:39:27;3.80;99.90
17565;DHT22;62994;52.126;5.596;2023-12-04T14:42:12;3.80;99.90
17565;DHT22;62994;52.126;5.596;2023-12-04T14:58:39;3.80;99.90
17565;DHT22;62994;52.126;5.596;2023-12-04T15:08:26;3.70;99.90
17565;DHT22;62994;52.126;5.596;2023-12-04T15:11:53;3.70;99.90
17565;DHT22;62994;52.126;5.596;2023-12-04T15:14:39;3.70;99.90
17565;DHT22;62994;52.126;5.596;2023-12-04T15:21:06;3.70;99.90
17565;DHT22;62994;52.126;5.596;2023-12-04T15:30:23;3.70;99.90
17565;DHT22;62994;52.126;5.596;2023-12-04T15:32:50;3.60;99.90
17565;DHT22;62994;52.126;5.596;2023-12-04T15:35:19;3.70;99.90
17565;DHT22;62994;52.126;5.596;2023-12-04T15:41:10;3.70;99.90
17565;DHT22;62994;52.126;5.596;2023-12-04T15:49:58;3.70;99.90
17565;DHT22;62994;52.126;5.596;2023-12-04T16:03:15;3.70;99.90
17565;DHT22;62994;52.126;5.596;2023-12-04T16:05:48;3.70;99.90
17565;DHT22;62994;52.126;5.596;2023-12-04T16:08:41;3.50;99.90
17565;DHT22;62994;52.126;5.596;2023-12-04T16:21:34;3.50;99.90
17565;DHT22;62994;52.126;5.596;2023-12-04T16:24:03;3.50;99.90
17565;DHT22;62994;52.126;5.596;2023-12-04T16:26:35;3.50;99.90
17565;DHT22;62994;52.126;5.596;2023-12-04T16:29:14;3.50;99.90
17565;DHT22;62994;52.126;5.596;2023-12-04T16:52:46;3.30;99.90
17565;DHT22;62994;52.126;5.596;2023-12-04T16:58:52;3.30;99.90
17565;DHT22;62994;52.126;5.596;2023-12-04T17:22:12;3.30;99.90
17565;DHT22;62994;52.126;5.596;2023-12-04T17:46:02;3.30;99.90
17565;DHT22;62994;52.126;5.596;2023-12-04T17:48:37;3.30;99.90
17565;DHT22;62994;52.126;5.596;2023-12-04T17:51:37;3.30;99.90
17565;DHT22;62994;52.126;5.596;2023-12-04T17:57:46;3.30;99.90
17565;DHT22;62994;52.126;5.596;2023-12-04T18:00:36;3.00;99.90
17565;DHT22;62994;52.126;5.596;2023-12-04T18:03:08;3.20;99.90
17565;DHT22;62994;52.126;5.596;2023-12-04T18:09:23;3.30;99.90
17565;DHT22;62994;52.126;5.596;2023-12-04T18:16:04;3.20;99.90
17565;DHT22;62994;52.126;5.596;2023-12-04T18:19:20;3.20;99.90
17565;DHT22;62994;52.126;5.596;2023-12-04T18:25:38;3.20;99.90
17565;DHT22;62994;52.126;5.596;2023-12-04T18:28:36;3.20;99.90
17565;DHT22;62994;52.126;5.596;2023-12-04T18:31:33;3.20;99.90
17565;DHT22;62994;52.126;5.596;2023-12-04T18:34:18;3.20;99.90
17565;DHT22;62994;52.126;5.596;2023-12-04T18:37:01;3.20;99.90
17565;DHT22;62994;52.126;5.596;2023-12-04T19:00:50;3.00;99.90
17565;DHT22;62994;52.126;5.596;2023-12-04T19:03:18;3.00;99.90
17565;DHT22;62994;52.126;5.596;2023-12-04T21:32:03;3.20;99.90
17565;DHT22;62994;52.126;5.596;2023-12-04T21:34:31;3.20;99.90
17565;DHT22;62994;52.126;5.596;2023-12-04T21:37:13;3.20;99.90
17565;DHT22;62994;52.126;5.596;2023-12-04T21:39:42;3.20;99.90
